createdAt,value
2023-01-17T00:00:06.035Z,9.70
2023-01-17T00:01:09.632Z,9.70
2023-01-17T00:02:12.957Z,9.70
2023-01-17T00:03:14.942Z,9.70
2023-01-17T00:04:35.540Z,9.70
2023-01-17T00:06:00.101Z,9.70
2023-01-17T00:07:20.968Z,9.60
2023-01-17T00:08:55.130Z,9.70
2023-01-17T00:09:59.187Z,9.70
2023-01-17T00:11:01.198Z,9.70
2023-01-17T00:12:03.419Z,9.70
2023-01-17T00:13:05.431Z,9.70
2023-01-17T00:14:07.473Z,9.70
2023-01-17T00:15:10.084Z,9.70
2023-01-17T00:16:12.089Z,9.70
2023-01-17T00:17:14.102Z,9.70
2023-01-17T00:18:17.158Z,9.70
2023-01-17T00:19:37.705Z,9.80
2023-01-17T00:20:58.046Z,9.80
2023-01-17T00:22:18.658Z,9.90
2023-01-17T00:23:42.575Z,10.00
2023-01-17T00:25:16.677Z,10.10
2023-01-17T00:26:19.974Z,10.10
2023-01-17T00:27:24.719Z,10.10
2023-01-17T00:28:27.629Z,10.10
2023-01-17T00:29:29.491Z,10.10
2023-01-17T00:30:32.016Z,10.10
2023-01-17T00:31:33.988Z,10.20
2023-01-17T00:32:35.930Z,10.20
2023-01-17T00:33:38.631Z,10.20
2023-01-17T00:34:40.555Z,10.20
2023-01-17T00:35:42.701Z,10.20
2023-01-17T00:36:44.611Z,10.30
2023-01-17T00:37:46.488Z,10.20
2023-01-17T00:38:48.500Z,10.20
2023-01-17T00:39:50.391Z,10.30
2023-01-17T00:40:52.825Z,10.30
2023-01-17T00:41:54.775Z,10.30
2023-01-17T00:43:15.615Z,10.30
2023-01-17T00:44:35.858Z,10.30
2023-01-17T00:45:56.343Z,10.40
2023-01-17T00:47:17.025Z,10.40
2023-01-17T00:48:37.458Z,10.40
2023-01-17T00:49:58.214Z,10.40
2023-01-17T00:51:21.900Z,10.40
2023-01-17T00:52:42.634Z,10.30
2023-01-17T00:54:03.054Z,10.30
2023-01-17T00:55:23.944Z,10.30
2023-01-17T00:56:44.359Z,10.30
2023-01-17T00:58:05.128Z,10.30
2023-01-17T00:59:25.784Z,10.30
2023-01-17T01:00:46.543Z,10.20
2023-01-17T01:02:07.438Z,10.20
2023-01-17T01:03:29.635Z,10.30
2023-01-17T01:04:50.164Z,10.40
2023-01-17T01:06:11.061Z,10.50
2023-01-17T01:07:31.923Z,10.50
2023-01-17T01:08:52.328Z,10.40
2023-01-17T01:10:12.637Z,10.40
2023-01-17T01:11:36.175Z,10.50
2023-01-17T01:12:56.896Z,10.40
2023-01-17T01:14:18.922Z,10.50
2023-01-17T01:15:39.504Z,10.50
2023-01-17T01:17:00.273Z,10.50
2023-01-17T01:18:27.849Z,10.40
2023-01-17T01:19:48.351Z,10.40
2023-01-17T01:21:08.967Z,10.40
2023-01-17T01:22:29.577Z,10.40
2023-01-17T01:23:50.103Z,10.40
2023-01-17T01:25:10.822Z,10.40
2023-01-17T01:26:31.603Z,10.40
2023-01-17T01:27:52.129Z,10.30
2023-01-17T01:29:12.756Z,10.30
2023-01-17T01:30:42.738Z,10.30
2023-01-17T01:32:03.174Z,10.30
2023-01-17T01:33:18.794Z,10.30
2023-01-17T01:34:28.017Z,10.20
2023-01-17T01:35:30.169Z,10.30
2023-01-17T01:36:32.068Z,10.30
2023-01-17T01:37:34.112Z,10.20
2023-01-17T01:38:36.535Z,10.20
2023-01-17T01:39:38.514Z,10.20
2023-01-17T01:40:45.549Z,10.20
2023-01-17T01:41:47.659Z,10.30
2023-01-17T01:42:57.974Z,10.30
2023-01-17T01:44:00.032Z,10.20
2023-01-17T01:45:16.162Z,10.30
2023-01-17T01:46:26.879Z,10.30
2023-01-17T01:47:40.786Z,10.30
2023-01-17T01:48:46.883Z,10.30
2023-01-17T01:49:49.440Z,10.40
2023-01-17T01:50:51.745Z,10.50
2023-01-17T01:52:01.843Z,10.50
2023-01-17T01:53:06.367Z,10.50
2023-01-17T01:54:14.205Z,10.50
2023-01-17T01:55:20.059Z,10.50
2023-01-17T01:56:23.697Z,10.50
2023-01-17T01:57:29.966Z,10.50
2023-01-17T01:58:34.825Z,10.60
2023-01-17T01:59:41.064Z,10.70
2023-01-17T02:00:43.133Z,10.80
2023-01-17T02:01:46.409Z,11.00
2023-01-17T02:02:49.748Z,11.20
2023-01-17T02:03:52.396Z,11.20
2023-01-17T02:04:54.554Z,11.40
2023-01-17T02:06:04.926Z,11.50
2023-01-17T02:07:15.388Z,11.60
2023-01-17T02:08:21.322Z,11.70
2023-01-17T02:09:24.365Z,11.70
2023-01-17T02:10:26.422Z,11.80
2023-01-17T02:11:28.426Z,11.80
2023-01-17T02:12:30.944Z,11.90
2023-01-17T02:13:32.958Z,12.00
2023-01-17T02:14:34.881Z,12.00
2023-01-17T02:16:03.012Z,12.00
2023-01-17T02:17:37.517Z,12.10
2023-01-17T02:19:11.454Z,12.10
2023-01-17T02:20:40.460Z,12.10
2023-01-17T02:21:58.653Z,12.20
2023-01-17T02:23:06.807Z,12.20
2023-01-17T02:24:41.373Z,12.20
2023-01-17T02:26:12.509Z,12.30
2023-01-17T02:27:28.445Z,12.20
2023-01-17T02:28:42.176Z,12.30
2023-01-17T02:30:14.821Z,12.20
2023-01-17T02:31:39.668Z,12.30
2023-01-17T02:33:11.433Z,12.30
2023-01-17T02:34:17.678Z,12.30
2023-01-17T02:35:28.235Z,12.30
2023-01-17T02:36:35.027Z,12.30
2023-01-17T02:37:41.373Z,12.30
2023-01-17T02:38:56.589Z,12.20
2023-01-17T02:40:10.475Z,12.10
2023-01-17T02:41:21.079Z,12.20
2023-01-17T02:42:28.026Z,12.20
2023-01-17T02:43:30.179Z,12.20
2023-01-17T02:44:41.154Z,12.10
2023-01-17T02:45:43.124Z,12.20
2023-01-17T02:46:46.938Z,12.20
2023-01-17T02:47:49.468Z,12.20
2023-01-17T02:48:52.200Z,12.20
2023-01-17T02:49:59.373Z,12.20
2023-01-17T02:51:10.432Z,12.10
2023-01-17T02:52:33.892Z,12.10
2023-01-17T02:53:57.330Z,12.20
2023-01-17T02:55:23.194Z,12.20
2023-01-17T02:56:49.732Z,12.30
2023-01-17T02:58:13.259Z,12.20
2023-01-17T02:59:32.327Z,12.20
2023-01-17T03:01:05.526Z,12.20
2023-01-17T03:02:38.402Z,12.20
2023-01-17T03:03:52.188Z,12.20
2023-01-17T03:05:09.414Z,12.20
2023-01-17T03:06:20.011Z,12.20
2023-01-17T03:07:26.026Z,12.20
2023-01-17T03:08:29.258Z,12.20
2023-01-17T03:09:32.480Z,12.20
2023-01-17T03:10:36.252Z,12.20
2023-01-17T03:11:38.238Z,12.20
2023-01-17T03:12:40.966Z,12.20
2023-01-17T03:13:43.024Z,12.10
2023-01-17T03:14:44.919Z,12.10
2023-01-17T03:15:47.360Z,12.10
2023-01-17T03:16:49.450Z,12.10
2023-01-17T03:17:54.450Z,12.10
2023-01-17T03:18:56.596Z,12.10
2023-01-17T03:19:58.907Z,12.10
2023-01-17T03:21:01.034Z,12.10
2023-01-17T03:22:03.070Z,12.10
2023-01-17T03:23:05.023Z,12.10
2023-01-17T03:24:07.283Z,12.10
2023-01-17T03:25:09.419Z,12.00
2023-01-17T03:26:11.520Z,12.00
2023-01-17T03:27:13.544Z,12.10
2023-01-17T03:28:15.485Z,12.10
2023-01-17T03:29:17.504Z,12.10
2023-01-17T03:30:21.849Z,12.00
2023-01-17T03:31:24.227Z,12.00
2023-01-17T03:32:26.190Z,11.90
2023-01-17T03:33:28.137Z,12.00
2023-01-17T03:34:30.188Z,12.00
2023-01-17T03:35:32.155Z,12.00
2023-01-17T03:36:34.161Z,12.00
2023-01-17T03:37:36.064Z,12.00
2023-01-17T03:38:38.391Z,12.10
2023-01-17T03:39:40.346Z,12.00
2023-01-17T03:40:42.539Z,12.00
2023-01-17T03:41:44.487Z,12.00
2023-01-17T03:42:46.392Z,12.00
2023-01-17T03:43:48.470Z,12.00
2023-01-17T03:44:50.385Z,12.00
2023-01-17T03:45:54.490Z,12.00
2023-01-17T03:46:56.574Z,12.00
2023-01-17T03:47:59.517Z,12.10
2023-01-17T03:49:01.535Z,12.10
2023-01-17T03:50:04.377Z,12.10
2023-01-17T03:51:06.436Z,12.00
2023-01-17T03:52:08.454Z,12.00
2023-01-17T03:53:10.705Z,12.00
2023-01-17T03:54:12.599Z,12.00
2023-01-17T03:55:14.691Z,12.00
2023-01-17T03:56:16.756Z,11.90
2023-01-17T03:57:21.202Z,11.90
2023-01-17T03:58:23.170Z,11.80
2023-01-17T03:59:25.112Z,11.80
2023-01-17T04:00:27.030Z,11.80
2023-01-17T04:01:29.030Z,11.80
2023-01-17T04:02:31.020Z,11.80
2023-01-17T04:03:33.033Z,11.80
2023-01-17T04:04:35.018Z,11.80
2023-01-17T04:05:37.013Z,11.80
2023-01-17T04:06:38.987Z,11.80
2023-01-17T04:07:41.683Z,11.80
2023-01-17T04:08:43.697Z,11.90
2023-01-17T04:09:45.720Z,12.00
2023-01-17T04:10:47.825Z,12.10
2023-01-17T04:11:51.055Z,12.10
2023-01-17T04:12:53.121Z,12.10
2023-01-17T04:13:55.352Z,12.00
2023-01-17T04:14:57.376Z,12.00
2023-01-17T04:15:59.405Z,12.00
2023-01-17T04:17:01.600Z,12.00
2023-01-17T04:18:05.336Z,12.00
2023-01-17T04:19:09.405Z,12.00
2023-01-17T04:20:35.837Z,12.00
2023-01-17T04:21:37.767Z,11.90
2023-01-17T04:22:39.722Z,11.90
2023-01-17T04:23:41.790Z,11.90
2023-01-17T04:24:43.724Z,11.90
2023-01-17T04:25:45.910Z,11.90
2023-01-17T04:26:47.928Z,11.90
2023-01-17T04:27:49.844Z,11.90
2023-01-17T04:28:51.934Z,11.90
2023-01-17T04:29:53.860Z,12.00
2023-01-17T04:31:00.102Z,12.00
2023-01-17T04:32:02.172Z,12.10
2023-01-17T04:33:04.266Z,12.10
2023-01-17T04:34:06.183Z,12.20
2023-01-17T04:35:09.461Z,12.20
2023-01-17T04:36:11.442Z,12.10
2023-01-17T04:37:13.343Z,12.20
2023-01-17T04:38:15.297Z,12.20
2023-01-17T04:39:17.321Z,12.20
2023-01-17T04:40:19.351Z,12.20
2023-01-17T04:41:21.302Z,12.10
2023-01-17T04:42:23.342Z,12.10
2023-01-17T04:43:25.274Z,12.00
2023-01-17T04:44:27.331Z,12.00
2023-01-17T04:45:29.346Z,11.90
2023-01-17T04:46:31.478Z,11.90
2023-01-17T04:47:34.353Z,11.80
2023-01-17T04:48:36.486Z,11.80
2023-01-17T04:49:38.418Z,11.70
2023-01-17T04:50:40.410Z,11.70
2023-01-17T04:51:42.313Z,11.60
2023-01-17T04:52:44.416Z,11.60
2023-01-17T04:53:46.312Z,11.50
2023-01-17T04:54:49.558Z,11.50
2023-01-17T04:55:51.582Z,11.40
2023-01-17T04:56:53.505Z,11.40
2023-01-17T04:57:55.680Z,11.30
2023-01-17T04:58:58.497Z,11.20
2023-01-17T05:00:00.439Z,11.20
2023-01-17T05:01:07.589Z,11.20
2023-01-17T05:02:10.059Z,11.10
2023-01-17T05:03:12.080Z,11.10
2023-01-17T05:04:14.066Z,11.00
2023-01-17T05:05:16.074Z,11.00
2023-01-17T05:06:18.046Z,11.00
2023-01-17T05:07:19.960Z,11.00
2023-01-17T05:08:21.913Z,10.90
2023-01-17T05:09:23.958Z,10.90
2023-01-17T05:10:26.237Z,10.80
2023-01-17T05:11:28.347Z,10.80
2023-01-17T05:12:30.337Z,10.80
2023-01-17T05:13:32.457Z,10.80
2023-01-17T05:14:34.582Z,10.80
2023-01-17T05:15:37.043Z,10.80
2023-01-17T05:16:39.019Z,10.70
2023-01-17T05:17:40.975Z,10.70
2023-01-17T05:18:42.945Z,10.70
2023-01-17T05:19:45.281Z,10.80
2023-01-17T05:20:47.373Z,10.80
2023-01-17T05:21:49.376Z,10.80
2023-01-17T05:22:56.500Z,10.80
2023-01-17T05:23:58.471Z,10.80
2023-01-17T05:25:00.426Z,10.80
2023-01-17T05:26:02.365Z,10.80
2023-01-17T05:27:06.218Z,10.80
2023-01-17T05:28:09.019Z,10.80
2023-01-17T05:29:11.086Z,10.80
2023-01-17T05:30:13.391Z,10.80
2023-01-17T05:31:15.397Z,10.80
2023-01-17T05:32:17.444Z,10.90
2023-01-17T05:33:19.409Z,10.80
2023-01-17T05:34:21.392Z,10.80
2023-01-17T05:35:26.685Z,10.90
2023-01-17T05:36:28.733Z,10.90
2023-01-17T05:37:30.768Z,10.90
2023-01-17T05:38:32.715Z,11.00
2023-01-17T05:39:34.683Z,11.00
2023-01-17T05:40:36.872Z,11.10
2023-01-17T05:41:38.916Z,11.10
2023-01-17T05:42:45.499Z,11.10
2023-01-17T05:43:47.444Z,11.10
2023-01-17T05:44:49.409Z,11.10
2023-01-17T05:45:51.365Z,11.10
2023-01-17T05:46:54.528Z,11.10
2023-01-17T05:47:57.330Z,11.10
2023-01-17T05:48:59.224Z,11.10
2023-01-17T05:50:01.183Z,11.10
2023-01-17T05:51:03.280Z,11.20
2023-01-17T05:52:05.241Z,11.20
2023-01-17T05:53:13.447Z,11.20
2023-01-17T05:54:15.427Z,11.30
2023-01-17T05:55:17.471Z,11.30
2023-01-17T05:56:19.451Z,11.30
2023-01-17T05:57:21.346Z,11.30
2023-01-17T05:58:23.403Z,11.30
2023-01-17T05:59:36.624Z,11.30
2023-01-17T06:00:39.541Z,11.20
2023-01-17T06:01:41.511Z,11.20
2023-01-17T06:02:45.308Z,11.20
2023-01-17T06:03:47.382Z,11.20
2023-01-17T06:04:49.335Z,11.20
2023-01-17T06:05:51.323Z,11.20
2023-01-17T06:06:53.305Z,11.20
2023-01-17T06:07:56.542Z,11.20
2023-01-17T06:08:58.511Z,11.20
2023-01-17T06:10:00.498Z,11.20
2023-01-17T06:11:02.510Z,11.20
2023-01-17T06:12:04.806Z,11.20
2023-01-17T06:13:09.178Z,11.20
2023-01-17T06:14:11.169Z,11.20
2023-01-17T06:15:15.289Z,11.20
2023-01-17T06:16:17.264Z,11.20
2023-01-17T06:17:19.307Z,11.30
2023-01-17T06:18:21.246Z,11.30
2023-01-17T06:19:23.249Z,11.30
2023-01-17T06:20:27.090Z,11.40
2023-01-17T06:21:30.361Z,11.40
2023-01-17T06:22:32.928Z,11.50
2023-01-17T06:23:34.864Z,11.50
2023-01-17T06:24:36.861Z,11.50
2023-01-17T06:25:44.407Z,11.50
2023-01-17T06:26:46.424Z,11.50
2023-01-17T06:27:48.394Z,11.50
2023-01-17T06:28:50.373Z,11.50
2023-01-17T06:29:53.110Z,11.40
2023-01-17T06:30:55.183Z,11.40
2023-01-17T06:31:57.250Z,11.40
2023-01-17T06:32:59.227Z,11.40
2023-01-17T06:34:04.583Z,11.40
2023-01-17T06:35:06.905Z,11.40
2023-01-17T06:36:09.220Z,11.40
2023-01-17T06:37:11.446Z,11.50
2023-01-17T06:38:13.447Z,11.50
2023-01-17T06:39:15.404Z,11.50
2023-01-17T06:40:17.632Z,11.60
2023-01-17T06:41:19.610Z,11.60
2023-01-17T06:42:21.696Z,11.60
2023-01-17T06:43:23.604Z,11.60
2023-01-17T06:44:26.343Z,11.70
2023-01-17T06:45:29.867Z,11.70
2023-01-17T06:46:31.934Z,11.70
2023-01-17T06:47:38.834Z,11.70
2023-01-17T06:48:43.688Z,11.70
2023-01-17T06:49:45.839Z,11.70
2023-01-17T06:50:49.832Z,11.70
2023-01-17T06:51:51.862Z,11.70
2023-01-17T06:52:59.657Z,11.80
2023-01-17T06:54:01.577Z,11.80
2023-01-17T06:55:04.020Z,11.80
2023-01-17T06:56:06.596Z,11.90
2023-01-17T06:57:08.534Z,11.80
2023-01-17T06:58:10.599Z,11.80
2023-01-17T06:59:12.523Z,11.80
2023-01-17T07:00:15.416Z,11.80
2023-01-17T07:01:18.605Z,11.80
2023-01-17T07:02:20.720Z,11.90
2023-01-17T07:03:25.201Z,11.90
2023-01-17T07:04:27.174Z,12.00
2023-01-17T07:05:29.342Z,12.00
2023-01-17T07:06:31.381Z,12.00
2023-01-17T07:07:33.831Z,12.00
2023-01-17T07:08:36.453Z,12.00
2023-01-17T07:09:38.447Z,12.00
2023-01-17T07:10:40.489Z,12.00
2023-01-17T07:11:42.430Z,12.00
2023-01-17T07:12:44.450Z,12.00
2023-01-17T07:13:46.377Z,12.10
2023-01-17T07:14:48.347Z,12.10
2023-01-17T07:15:50.410Z,12.20
2023-01-17T07:16:52.354Z,12.20
2023-01-17T07:17:54.298Z,12.10
2023-01-17T07:18:58.154Z,12.20
2023-01-17T07:20:00.265Z,12.20
2023-01-17T07:21:02.228Z,12.20
2023-01-17T07:22:04.188Z,12.20
2023-01-17T07:23:06.806Z,12.20
2023-01-17T07:24:09.323Z,12.10
2023-01-17T07:25:11.287Z,12.10
2023-01-17T07:26:13.265Z,12.10
2023-01-17T07:27:15.307Z,12.10
2023-01-17T07:28:17.281Z,12.10
2023-01-17T07:29:19.451Z,12.00
2023-01-17T07:30:21.665Z,12.00
2023-01-17T07:31:23.644Z,11.90
2023-01-17T07:32:28.245Z,11.90
2023-01-17T07:33:30.232Z,11.90
2023-01-17T07:34:32.227Z,11.80
2023-01-17T07:35:34.273Z,11.80
2023-01-17T07:36:36.375Z,11.80
2023-01-17T07:37:39.130Z,11.80
2023-01-17T07:38:41.358Z,11.70
2023-01-17T07:39:43.377Z,11.70
2023-01-17T07:40:46.276Z,11.70
2023-01-17T07:41:48.272Z,11.70
2023-01-17T07:42:50.271Z,11.60
2023-01-17T07:43:56.261Z,11.60
2023-01-17T07:45:02.251Z,11.60
2023-01-17T07:46:07.867Z,11.50
2023-01-17T07:47:10.344Z,11.50
2023-01-17T07:48:12.912Z,11.50
2023-01-17T07:49:14.894Z,11.50
2023-01-17T07:50:16.967Z,11.70
2023-01-17T07:51:19.131Z,11.60
2023-01-17T07:52:21.489Z,11.70
2023-01-17T07:53:28.554Z,11.70
2023-01-17T07:54:30.540Z,11.70
2023-01-17T07:55:35.448Z,11.70
2023-01-17T07:56:37.653Z,11.70
2023-01-17T07:57:39.663Z,11.70
2023-01-17T07:58:41.704Z,11.70
2023-01-17T07:59:43.676Z,11.70
2023-01-17T08:00:45.716Z,11.80
2023-01-17T08:01:47.857Z,11.80
2023-01-17T08:02:50.179Z,11.80
2023-01-17T08:03:54.857Z,11.80
2023-01-17T08:04:57.205Z,11.80
2023-01-17T08:05:59.532Z,11.80
2023-01-17T08:07:02.423Z,11.80
2023-01-17T08:08:04.581Z,11.90
2023-01-17T08:09:06.573Z,11.90
2023-01-17T08:10:13.005Z,11.90
2023-01-17T08:11:15.623Z,11.90
2023-01-17T08:12:17.899Z,12.00
2023-01-17T08:13:23.212Z,12.10
2023-01-17T08:14:25.295Z,12.10
2023-01-17T08:15:27.523Z,12.00
2023-01-17T08:16:29.870Z,12.00
2023-01-17T08:17:31.966Z,11.90
2023-01-17T08:18:33.902Z,12.00
2023-01-17T08:19:35.853Z,12.00
2023-01-17T08:20:37.834Z,12.00
2023-01-17T08:21:39.757Z,11.90
2023-01-17T08:22:42.663Z,11.90
2023-01-17T08:23:49.020Z,11.80
2023-01-17T08:24:50.939Z,11.80
2023-01-17T08:25:52.917Z,11.80
2023-01-17T08:26:56.183Z,11.70
2023-01-17T08:27:58.546Z,11.70
2023-01-17T08:29:01.299Z,11.70
2023-01-17T08:30:03.779Z,11.80
2023-01-17T08:31:09.844Z,11.80
2023-01-17T08:32:11.776Z,11.80
2023-01-17T08:33:13.698Z,11.90
2023-01-17T08:34:16.552Z,11.90
2023-01-17T08:35:20.183Z,11.90
2023-01-17T08:36:22.364Z,11.80
2023-01-17T08:37:24.609Z,11.80
2023-01-17T08:38:26.545Z,11.70
2023-01-17T08:39:28.829Z,11.70
2023-01-17T08:40:32.837Z,11.70
2023-01-17T08:41:36.002Z,11.60
2023-01-17T08:42:39.362Z,11.60
2023-01-17T08:43:41.311Z,11.60
2023-01-17T08:44:44.156Z,11.60
2023-01-17T08:45:48.343Z,11.60
2023-01-17T08:46:50.449Z,11.60
2023-01-17T08:47:53.297Z,11.70
2023-01-17T08:48:58.797Z,11.70
2023-01-17T08:50:01.182Z,11.70
2023-01-17T08:51:04.637Z,11.60
2023-01-17T08:52:06.751Z,11.60
2023-01-17T08:53:08.670Z,11.60
2023-01-17T08:54:12.990Z,11.50
2023-01-17T08:55:15.132Z,11.50
2023-01-17T08:56:17.092Z,11.50
2023-01-17T08:57:19.429Z,11.50
2023-01-17T08:58:21.353Z,11.50
2023-01-17T08:59:23.498Z,11.50
2023-01-17T09:00:27.174Z,11.50
2023-01-17T09:01:29.221Z,11.50
2023-01-17T09:02:31.172Z,11.50
2023-01-17T09:03:34.682Z,11.50
2023-01-17T09:04:36.725Z,11.50
2023-01-17T09:05:38.646Z,11.50
2023-01-17T09:06:44.103Z,11.50
2023-01-17T09:07:46.061Z,11.50
2023-01-17T09:08:49.589Z,11.50
2023-01-17T09:09:52.729Z,11.50
2023-01-17T09:10:54.694Z,11.50
2023-01-17T09:11:56.622Z,11.50
2023-01-17T09:12:58.765Z,11.60
2023-01-17T09:14:01.946Z,11.60
2023-01-17T09:15:05.194Z,11.70
2023-01-17T09:16:08.003Z,11.70
2023-01-17T09:17:10.258Z,11.70
2023-01-17T09:18:12.200Z,11.60
2023-01-17T09:19:18.243Z,11.70
2023-01-17T09:20:20.436Z,11.60
2023-01-17T09:21:23.069Z,11.70
2023-01-17T09:22:25.855Z,11.60
2023-01-17T09:23:29.850Z,11.60
2023-01-17T09:24:32.814Z,11.70
2023-01-17T09:25:34.761Z,11.70
2023-01-17T09:26:36.752Z,11.70
2023-01-17T09:27:38.737Z,11.70
2023-01-17T09:28:42.727Z,11.70
2023-01-17T09:29:44.719Z,11.80
2023-01-17T09:30:47.136Z,11.90
2023-01-17T09:31:49.169Z,11.90
2023-01-17T09:32:55.152Z,12.00
2023-01-17T09:33:58.399Z,12.00
2023-01-17T09:35:00.832Z,12.00
2023-01-17T09:36:04.276Z,12.00
2023-01-17T09:41:37.341Z,12.10
2023-01-17T09:42:40.982Z,12.10
2023-01-17T09:43:57.081Z,12.10
2023-01-17T09:44:59.595Z,12.10
2023-01-17T09:46:01.970Z,12.10
2023-01-17T09:47:16.119Z,12.00
2023-01-17T09:48:34.771Z,12.10
2023-01-17T09:49:43.206Z,12.10
2023-01-17T09:50:54.707Z,12.20
2023-01-17T09:51:56.783Z,12.30
2023-01-17T09:53:04.553Z,12.40
2023-01-17T09:54:25.975Z,12.40
2023-01-17T09:55:37.176Z,12.40
2023-01-17T09:56:44.546Z,12.40
2023-01-17T09:58:12.891Z,12.40
2023-01-17T09:59:36.790Z,12.40
2023-01-17T10:00:38.694Z,12.40
2023-01-17T10:01:50.408Z,12.30
2023-01-17T10:03:29.767Z,12.40
2023-01-17T10:04:55.641Z,12.30
2023-01-17T10:06:27.628Z,12.30
2023-01-17T10:07:47.667Z,12.20
2023-01-17T10:08:52.610Z,12.20
2023-01-17T10:10:02.872Z,12.20
2023-01-17T10:11:07.539Z,12.30
2023-01-17T10:12:09.394Z,12.30
2023-01-17T10:13:54.192Z,12.20
2023-01-17T10:15:27.114Z,12.20
2023-01-17T10:16:37.952Z,12.30
2023-01-17T10:18:29.616Z,12.20
2023-01-17T10:19:37.769Z,12.20
2023-01-17T10:21:10.997Z,12.30
2023-01-17T10:22:37.600Z,12.30
2023-01-17T10:23:45.661Z,12.40
2023-01-17T10:24:59.983Z,12.40
2023-01-17T10:26:08.160Z,12.40
2023-01-17T10:27:24.557Z,12.40
2023-01-17T10:28:34.462Z,12.60
2023-01-17T10:29:36.929Z,12.60
2023-01-17T10:31:07.367Z,12.60
2023-01-17T10:32:12.696Z,12.60
2023-01-17T10:33:26.256Z,12.60
2023-01-17T10:34:48.981Z,12.60
2023-01-17T10:36:07.840Z,12.50
2023-01-17T10:37:22.026Z,12.60
2023-01-17T10:38:31.907Z,12.60
2023-01-17T10:39:35.236Z,12.60
2023-01-17T10:40:44.725Z,12.60
2023-01-17T10:42:17.547Z,12.60
2023-01-17T10:43:22.765Z,12.60
2023-01-17T10:44:43.473Z,12.60
2023-01-17T10:45:53.876Z,12.60
2023-01-17T10:47:17.937Z,12.60
2023-01-17T10:48:40.426Z,12.60
2023-01-17T10:49:49.091Z,12.50
2023-01-17T10:51:20.358Z,12.50
2023-01-17T10:52:53.357Z,12.80
2023-01-17T10:54:31.675Z,12.90
2023-01-17T10:55:45.604Z,12.90
2023-01-17T10:56:48.282Z,12.90
2023-01-17T10:57:52.868Z,12.90
2023-01-17T10:59:09.084Z,13.00
2023-01-17T11:00:32.765Z,12.90
2023-01-17T11:01:35.007Z,12.90
2023-01-17T11:02:43.134Z,12.90
2023-01-17T11:03:53.869Z,12.90
2023-01-17T11:04:57.619Z,12.90
2023-01-17T11:07:29.965Z,12.90
2023-01-17T11:08:56.835Z,12.90
2023-01-17T11:10:02.247Z,12.90
2023-01-17T11:11:04.710Z,12.90
2023-01-17T11:12:21.999Z,12.90
2023-01-17T11:13:25.647Z,12.90
2023-01-17T11:14:27.852Z,12.90
2023-01-17T11:15:33.874Z,12.90
2023-01-17T11:16:37.336Z,12.90
2023-01-17T11:17:49.974Z,13.00
2023-01-17T11:19:28.629Z,13.00
2023-01-17T11:20:36.579Z,13.00
2023-01-17T11:21:40.310Z,13.00
2023-01-17T11:22:46.224Z,13.00
2023-01-17T11:23:51.906Z,13.00
2023-01-17T11:24:55.560Z,12.90
2023-01-17T11:26:05.656Z,12.90
2023-01-17T11:27:22.640Z,12.90
2023-01-17T11:28:30.312Z,12.90
2023-01-17T11:29:37.123Z,12.90
2023-01-17T11:30:55.476Z,12.90
2023-01-17T11:31:57.672Z,12.90
2023-01-17T11:33:06.294Z,12.90
2023-01-17T11:34:16.484Z,12.90
2023-01-17T11:35:21.794Z,12.80
2023-01-17T11:36:27.366Z,12.80
2023-01-17T11:37:32.338Z,12.80
2023-01-17T11:38:34.285Z,12.70
2023-01-17T11:39:36.306Z,12.70
2023-01-17T11:40:44.086Z,12.70
2023-01-17T11:41:47.875Z,12.70
2023-01-17T11:43:06.198Z,12.70
2023-01-17T11:44:30.929Z,12.70
2023-01-17T11:45:34.817Z,12.60
2023-01-17T11:46:36.898Z,12.60
2023-01-17T11:47:38.867Z,12.50
2023-01-17T11:48:40.874Z,12.50
2023-01-17T11:49:48.244Z,12.50
2023-01-17T11:51:00.357Z,12.50
2023-01-17T11:52:16.686Z,12.50
2023-01-17T11:53:21.735Z,12.50
2023-01-17T11:54:30.235Z,12.60
2023-01-17T11:55:34.952Z,12.60
2023-01-17T11:56:37.460Z,12.50
2023-01-17T11:57:39.595Z,12.50
2023-01-17T11:58:43.599Z,12.50
2023-01-17T11:59:47.735Z,12.50
2023-01-17T12:01:21.863Z,12.60
2023-01-17T12:02:37.429Z,12.60
2023-01-17T12:04:16.603Z,12.60
2023-01-17T12:05:40.298Z,12.60
2023-01-17T12:07:23.846Z,12.60
2023-01-17T12:08:31.748Z,12.60
2023-01-17T12:09:46.743Z,12.60
2023-01-17T12:11:10.151Z,12.70
2023-01-17T12:12:45.699Z,12.70
2023-01-17T12:14:02.834Z,12.80
2023-01-17T12:15:07.636Z,12.70
2023-01-17T12:16:32.317Z,12.70
2023-01-17T12:18:09.903Z,12.70
2023-01-17T12:19:33.654Z,12.80
2023-01-17T12:20:47.073Z,12.80
2023-01-17T12:22:07.812Z,12.80
2023-01-17T12:23:22.416Z,12.90
2023-01-17T12:24:33.874Z,12.90
2023-01-17T12:25:55.644Z,13.00
2023-01-17T12:27:31.171Z,13.00
2023-01-17T12:29:02.886Z,13.00
2023-01-17T12:30:27.805Z,13.00
2023-01-17T12:31:57.842Z,13.10
2023-01-17T12:33:32.131Z,13.10
2023-01-17T12:34:47.100Z,13.10
2023-01-17T12:36:07.704Z,13.10
2023-01-17T12:37:37.059Z,13.00
2023-01-17T12:38:40.147Z,13.00
2023-01-17T12:40:00.080Z,12.90
2023-01-17T12:41:14.398Z,12.90
2023-01-17T12:42:26.090Z,12.90
2023-01-17T12:43:33.836Z,12.80
2023-01-17T12:45:05.691Z,12.70
2023-01-17T12:46:23.613Z,12.70
2023-01-17T12:47:26.101Z,12.70
2023-01-17T12:48:34.330Z,12.60
2023-01-17T12:49:50.321Z,12.70
2023-01-17T12:50:55.254Z,12.80
2023-01-17T12:52:07.275Z,12.90
2023-01-17T12:53:27.553Z,12.90
2023-01-17T12:54:37.975Z,12.90
2023-01-17T12:55:51.279Z,12.90
2023-01-17T12:56:58.836Z,12.80
2023-01-17T12:58:04.244Z,12.70
2023-01-17T12:59:29.903Z,12.80
2023-01-17T13:00:37.123Z,12.80
2023-01-17T13:01:43.193Z,12.70
2023-01-17T13:03:16.152Z,12.70
2023-01-17T13:04:57.632Z,12.70
2023-01-17T13:06:03.328Z,12.60
2023-01-17T13:07:12.529Z,12.60
2023-01-17T13:08:23.793Z,12.60
2023-01-17T13:09:31.479Z,12.60
2023-01-17T13:10:41.400Z,12.70
2023-01-17T13:11:55.384Z,12.70
2023-01-17T13:13:03.190Z,12.80
2023-01-17T13:14:09.317Z,12.90
2023-01-17T13:15:24.926Z,12.80
2023-01-17T13:16:32.562Z,12.90
2023-01-17T13:17:51.403Z,13.00
2023-01-17T13:18:53.811Z,12.90
2023-01-17T13:20:28.836Z,12.80
2023-01-17T13:21:32.932Z,12.80
2023-01-17T13:22:37.909Z,12.80
2023-01-17T13:24:03.935Z,12.70
2023-01-17T13:25:35.183Z,12.60
2023-01-17T13:27:16.852Z,12.60
2023-01-17T13:28:49.534Z,12.50
2023-01-17T13:30:19.924Z,12.50
2023-01-17T13:31:21.899Z,12.50
2023-01-17T13:32:42.343Z,12.50
2023-01-17T13:34:03.050Z,12.50
2023-01-17T13:35:14.163Z,12.70
2023-01-17T13:37:23.784Z,12.70
2023-01-17T13:38:31.889Z,12.80
2023-01-17T13:39:59.462Z,12.80
2023-01-17T13:41:38.955Z,12.70
2023-01-17T13:42:56.079Z,12.60
2023-01-17T13:44:18.962Z,12.60
2023-01-17T13:45:28.802Z,12.60
2023-01-17T13:46:31.878Z,12.60
2023-01-17T13:47:40.402Z,12.50
2023-01-17T13:48:42.386Z,12.70
2023-01-17T13:49:47.647Z,12.70
2023-01-17T13:51:00.510Z,12.70
2023-01-17T13:52:33.265Z,12.70
2023-01-17T13:53:35.583Z,12.80
2023-01-17T13:54:55.260Z,12.80
2023-01-17T13:56:13.677Z,12.70
2023-01-17T13:57:27.916Z,12.80
2023-01-17T13:58:54.884Z,12.80
2023-01-17T13:59:58.359Z,12.80
2023-01-17T14:01:00.420Z,12.80
2023-01-17T14:02:02.545Z,12.90
2023-01-17T14:03:05.068Z,13.00
2023-01-17T14:04:08.486Z,12.90
2023-01-17T14:05:17.530Z,13.00
2023-01-17T14:06:40.793Z,13.00
2023-01-17T14:07:48.827Z,13.00
2023-01-17T14:08:50.884Z,13.00
2023-01-17T14:09:52.983Z,13.10
2023-01-17T14:11:07.424Z,13.10
2023-01-17T14:12:16.556Z,13.10
2023-01-17T14:13:37.826Z,13.10
2023-01-17T14:14:49.706Z,13.10
2023-01-17T14:15:52.263Z,13.10
2023-01-17T14:16:55.115Z,13.10
2023-01-17T14:18:03.126Z,13.10
2023-01-17T14:19:24.922Z,13.10
2023-01-17T14:20:27.426Z,13.20
2023-01-17T14:21:32.374Z,13.20
2023-01-17T14:22:41.622Z,13.20
2023-01-17T14:23:51.845Z,13.10
2023-01-17T14:25:12.267Z,13.10
2023-01-17T14:26:27.676Z,13.20
2023-01-17T14:27:34.712Z,13.10
2023-01-17T14:28:36.720Z,13.10
2023-01-17T14:29:46.920Z,13.10
2023-01-17T14:30:54.356Z,13.20
2023-01-17T14:32:05.768Z,13.20
2023-01-17T14:33:20.238Z,13.20
2023-01-17T14:34:22.877Z,13.10
2023-01-17T14:35:36.995Z,13.10
2023-01-17T14:36:41.307Z,13.10
2023-01-17T14:37:52.000Z,13.00
2023-01-17T14:38:54.185Z,13.00
2023-01-17T14:39:56.609Z,13.10
2023-01-17T14:41:09.713Z,13.10
2023-01-17T14:42:20.418Z,13.00
2023-01-17T14:43:25.770Z,13.00
2023-01-17T14:44:27.760Z,13.00
2023-01-17T14:45:34.891Z,13.10
2023-01-17T14:46:40.099Z,13.10